Terminal Aerodrome Forecast
Issued by NWS

Home | Current Version | Previous Version | Text Only | Print | Product List | Glossary On
Versions: 1 2 3 4 5 6 7 8 9 10 11 12 13 14 15 16 17 18 19 20 21 22 23 24 25 26 27 28 29
972
FTUS43 KDVN 191125
TAFBRL
TAF
KBRL 191125Z 1912/2012 16008KT 5SM BR VCSH OVC030
      TEMPO 1912/1913 2SM -RADZ OVC020
     FM191300 15006KT 5SM -DZ BR OVC020
     FM191500 11007KT 2SM -DZRA BR OVC012
     FM191800 10005KT 2SM -SHRA BR OVC008
     FM200000 04005KT 3SM -RA BR OVC006=

USA.gov is the U.S. government's official web portal to all federal, state and local government web resources and services.